Time;durP1;ratioP1;P1;durP2;ratioP2;P2;SDS_P1;SDS_P2;PMS_P1;PMS_P2;Temp;Humidity;BMP_temperature;BMP_pressure;BME280_temperature;BME280_humidity;BME280_pressure;Samples;Min_cycle;Max_cycle;Signal;HPM_P1;HPM_P2
2022/01/08 00:02:10;;;;;;;7.80;5.20;;;1.50;91.70;;;;;;5056150;28;20297;-90
2022/01/08 00:04:36;;;;;;;7.53;3.97;;;1.40;92.00;;;;;;5056410;28;20187;-91
2022/01/08 00:07:02;;;;;;;6.63;5.60;;;1.50;92.00;;;;;;5057434;28;20206;-91
2022/01/08 00:09:27;;;;;;;4.30;3.40;;;1.40;92.00;;;;;;5056579;28;20176;-91
2022/01/08 00:11:53;;;;;;;8.33;6.03;;;1.40;92.10;;;;;;5058039;28;20183;-91
2022/01/08 00:14:21;;;;;;;15.43;4.50;;;1.30;92.10;;;;;;5057431;28;20204;-91
2022/01/08 00:16:47;;;;;;;12.20;5.13;;;1.30;92.30;;;;;;5057048;28;20195;-90
2022/01/08 00:19:13;;;;;;;13.70;6.33;;;1.30;92.20;;;;;;5055510;28;20173;-90
2022/01/08 00:21:38;;;;;;;10.47;5.53;;;1.30;92.30;;;;;;5055365;28;20220;-90
2022/01/08 00:24:04;;;;;;;8.87;6.23;;;1.30;92.20;;;;;;5055277;28;20177;-90
2022/01/08 00:26:30;;;;;;;6.40;5.37;;;1.30;92.30;;;;;;5055324;28;20202;-90
2022/01/08 00:28:56;;;;;;;6.60;4.73;;;1.30;92.30;;;;;;5055423;28;20181;-90
2022/01/08 00:31:21;;;;;;;6.70;4.87;;;1.30;92.40;;;;;;5055392;28;20240;-90
2022/01/08 00:33:47;;;;;;;9.73;7.47;;;1.30;92.50;;;;;;5055342;28;20203;-91
2022/01/08 00:36:13;;;;;;;12.17;6.27;;;1.30;92.50;;;;;;5055478;28;20320;-90
2022/01/08 00:38:39;;;;;;;9.73;7.07;;;1.20;92.50;;;;;;5055485;28;20172;-91
2022/01/08 00:41:05;;;;;;;12.57;8.13;;;1.30;92.70;;;;;;5055427;28;20180;-90
2022/01/08 00:43:30;;;;;;;7.57;5.10;;;1.30;92.70;;;;;;5054995;28;20191;-90
2022/01/08 00:45:56;;;;;;;11.97;7.30;;;1.30;92.70;;;;;;5055025;28;20187;-90
2022/01/08 00:48:22;;;;;;;11.47;8.00;;;1.30;92.60;;;;;;5054727;28;20236;-90
2022/01/08 00:50:48;;;;;;;10.20;6.73;;;1.30;92.50;;;;;;5054912;28;20180;-90
2022/01/08 00:53:13;;;;;;;6.70;4.80;;;1.30;92.70;;;;;;5055846;28;20213;-90
2022/01/08 00:55:39;;;;;;;9.90;6.07;;;1.30;92.70;;;;;;5054922;28;20727;-91
2022/01/08 00:58:05;;;;;;;7.17;5.47;;;1.50;92.70;;;;;;5054946;28;20200;-90
2022/01/08 01:00:30;;;;;;;12.17;7.73;;;1.50;92.40;;;;;;5054970;28;20267;-89
2022/01/08 01:02:56;;;;;;;11.73;8.10;;;1.50;92.40;;;;;;5054408;28;20612;-89
2022/01/08 01:05:22;;;;;;;15.63;9.60;;;1.60;92.50;;;;;;5054279;28;20557;-89
2022/01/08 01:07:48;;;;;;;13.00;9.57;;;1.50;92.40;;;;;;5054248;28;20204;-90
2022/01/08 01:10:15;;;;;;;11.27;8.63;;;1.60;92.30;;;;;;5054229;28;20179;-89
2022/01/08 01:12:41;;;;;;;11.90;7.43;;;1.60;92.30;;;;;;5054290;28;20182;-90
2022/01/08 01:15:12;;;;;;;17.20;8.37;;;1.60;92.40;;;;;;5054473;28;20205;-90
2022/01/08 01:17:38;;;;;;;9.20;8.13;;;1.60;92.40;;;;;;5054539;28;20201;-91
2022/01/08 01:20:06;;;;;;;12.77;7.63;;;1.60;92.40;;;;;;5054310;28;20561;-90
2022/01/08 01:22:42;;;;;;;12.17;8.93;;;1.50;92.40;;;;;;5053547;28;20757;-90
2022/01/08 01:25:12;;;;;;;21.03;12.77;;;1.50;92.50;;;;;;5053995;28;20207;-90
2022/01/08 01:41:12;;;;;;;7.47;6.53;;;1.50;92.60;;;;;;5040392;28;20679;-90
2022/01/08 01:41:51;;;;;;;18.77;8.90;;;1.50;92.50;;;;;;5055386;28;20174;-90
2022/01/08 01:47:03;;;;;;;21.27;9.00;;;1.50;92.50;;;;;;5055379;28;20196;-91
2022/01/08 01:49:32;;;;;;;14.33;9.50;;;1.60;92.50;;;;;;5054861;28;20701;-91
2022/01/08 01:51:59;;;;;;;12.40;10.50;;;1.60;92.50;;;;;;5055675;28;20186;-91
2022/01/08 01:54:26;;;;;;;15.67;9.60;;;1.60;92.60;;;;;;5054584;28;20237;-91
2022/01/08 01:56:52;;;;;;;9.50;6.63;;;1.60;92.50;;;;;;5053736;28;20206;-89
2022/01/08 01:59:18;;;;;;;15.57;11.23;;;1.70;92.50;;;;;;5053383;28;20172;-90
2022/01/08 02:01:43;;;;;;;14.23;9.93;;;1.70;92.50;;;;;;5053282;28;20310;-90
2022/01/08 02:04:09;;;;;;;15.57;11.00;;;1.70;92.30;;;;;;5053338;28;20187;-90
2022/01/08 02:06:34;;;;;;;14.73;11.40;;;1.70;92.40;;;;;;5053281;28;20199;-90
2022/01/08 02:09:00;;;;;;;14.73;11.43;;;1.70;92.40;;;;;;5053157;28;20204;-90
2022/01/08 02:11:26;;;;;;;12.90;10.03;;;1.70;92.40;;;;;;5053209;28;20187;-90
2022/01/08 02:13:51;;;;;;;14.70;10.90;;;1.70;92.40;;;;;;5053069;28;20202;-90
2022/01/08 02:16:17;;;;;;;12.50;11.10;;;1.70;92.40;;;;;;5052863;28;20200;-90
2022/01/08 02:18:47;;;;;;;13.70;9.00;;;1.70;92.40;;;;;;5053111;28;20279;-90
2022/01/08 02:21:14;;;;;;;8.90;7.10;;;1.80;92.20;;;;;;5052964;28;20226;-90
2022/01/08 02:23:41;;;;;;;12.70;11.40;;;1.70;92.00;;;;;;5052920;28;20186;-90
2022/01/08 02:26:08;;;;;;;11.33;8.50;;;1.80;92.00;;;;;;5052959;28;20638;-90
2022/01/08 02:28:39;;;;;;;9.37;7.60;;;1.70;92.00;;;;;;5052867;28;20191;-90
2022/01/08 02:31:05;;;;;;;12.87;9.57;;;1.80;92.10;;;;;;5053137;28;20177;-90
2022/01/08 02:33:31;;;;;;;12.67;9.67;;;1.80;92.10;;;;;;5052600;28;20209;-90
2022/01/08 02:35:58;;;;;;;12.20;10.30;;;1.70;92.20;;;;;;5052590;28;20202;-90
2022/01/08 02:38:24;;;;;;;14.20;10.40;;;1.80;92.30;;;;;;5052658;28;20178;-90
2022/01/08 02:41:01;;;;;;;12.47;7.30;;;1.70;92.20;;;;;;5052605;28;20185;-89
2022/01/08 02:43:28;;;;;;;15.93;10.57;;;1.80;92.30;;;;;;5052514;28;20626;-90
2022/01/08 02:45:54;;;;;;;16.07;9.60;;;1.80;92.30;;;;;;5052510;28;20174;-89
2022/01/08 02:48:20;;;;;;;16.33;10.77;;;1.70;92.30;;;;;;5052430;28;20183;-90
2022/01/08 02:50:46;;;;;;;16.30;9.10;;;1.70;92.30;;;;;;5052326;28;20279;-90
2022/01/08 02:53:12;;;;;;;14.53;10.37;;;1.70;92.30;;;;;;5052375;28;20226;-89
2022/01/08 02:55:38;;;;;;;18.43;11.17;;;1.70;92.40;;;;;;5052668;28;20174;-89
2022/01/08 02:58:04;;;;;;;17.67;11.23;;;1.70;92.30;;;;;;5052213;28;20278;-90
2022/01/08 03:00:30;;;;;;;27.17;11.93;;;1.80;92.30;;;;;;5052252;28;20185;-90
2022/01/08 03:02:56;;;;;;;19.13;11.43;;;1.80;92.20;;;;;;5052186;28;20182;-90
2022/01/08 03:05:21;;;;;;;15.00;12.30;;;1.80;92.30;;;;;;5052277;28;20184;-90
2022/01/08 03:07:49;;;;;;;17.20;12.47;;;1.80;92.40;;;;;;5052225;28;20195;-90
2022/01/08 03:10:16;;;;;;;16.63;11.17;;;1.70;92.50;;;;;;5052161;28;20201;-90
2022/01/08 03:12:43;;;;;;;16.83;12.17;;;1.70;92.50;;;;;;5052111;28;20297;-89
2022/01/08 03:15:14;;;;;;;23.73;13.27;;;1.70;92.50;;;;;;5052203;28;20237;-90
2022/01/08 03:17:41;;;;;;;24.30;13.33;;;1.70;92.60;;;;;;5052240;28;20202;-90
2022/01/08 03:20:11;;;;;;;20.37;13.33;;;1.70;92.60;;;;;;5052295;28;20176;-90
2022/01/08 03:22:38;;;;;;;20.97;12.33;;;1.70;92.60;;;;;;5052357;28;20176;-89
2022/01/08 03:25:05;;;;;;;16.90;11.07;;;1.70;92.50;;;;;;5052051;28;20551;-90
2022/01/08 03:27:30;;;;;;;14.60;11.00;;;1.60;92.40;;;;;;5052197;28;20209;-90
2022/01/08 03:29:56;;;;;;;16.07;12.23;;;1.60;92.40;;;;;;5051978;28;20279;-90
2022/01/08 03:32:22;;;;;;;17.33;11.77;;;1.60;92.30;;;;;;5051893;28;20563;-90
2022/01/08 03:34:48;;;;;;;19.13;12.17;;;1.70;92.40;;;;;;5052086;28;20253;-90
2022/01/08 03:37:14;;;;;;;18.30;13.20;;;1.60;92.40;;;;;;5160139;22;20217;-93
2022/01/08 03:39:40;;;;;;;18.27;11.17;;;1.70;92.40;;;;;;5081638;28;20167;-94
2022/01/08 03:42:05;;;;;;;21.97;13.37;;;1.70;92.40;;;;;;5081351;28;20210;-93
2022/01/08 03:44:31;;;;;;;19.50;13.67;;;1.70;92.50;;;;;;5081604;28;20162;-94
2022/01/08 03:47:21;;;;;;;21.23;13.63;;;1.70;92.60;;;;;;5081498;28;20181;-94
2022/01/08 03:49:42;;;;;;;21.50;12.80;;;1.60;92.60;;;;;;5098576;28;20178;-93
2022/01/08 03:52:08;;;;;;;15.73;10.07;;;1.70;92.60;;;;;;5081520;28;20168;-92
2022/01/08 03:54:33;;;;;;;16.60;10.77;;;1.60;92.60;;;;;;5081414;28;20211;-94
2022/01/08 03:56:59;;;;;;;13.37;9.27;;;1.60;92.60;;;;;;5081426;28;20190;-93
2022/01/08 03:59:25;;;;;;;9.73;6.33;;;1.60;92.50;;;;;;5081330;28;20172;-93
2022/01/08 04:01:50;;;;;;;14.87;10.53;;;1.70;92.50;;;;;;5081398;28;20176;-92
2022/01/08 04:04:16;;;;;;;13.70;11.37;;;1.70;92.50;;;;;;5080968;28;20198;-92
2022/01/08 04:06:41;;;;;;;17.57;12.80;;;1.70;92.70;;;;;;5081306;28;20180;-93
2022/01/08 04:09:07;;;;;;;13.93;10.07;;;1.70;92.70;;;;;;5081261;28;20164;-93
2022/01/08 04:11:33;;;;;;;17.03;11.10;;;1.70;92.70;;;;;;5081329;28;20171;-93
2022/01/08 04:13:58;;;;;;;13.20;8.60;;;1.80;92.60;;;;;;5081870;28;20282;-93
2022/01/08 04:16:30;;;;;;;16.83;12.13;;;1.70;92.40;;;;;;5084918;28;20198;-92
2022/01/08 04:18:57;;;;;;;21.70;9.90;;;1.80;92.30;;;;;;5085009;28;20243;-94
2022/01/08 04:23:56;;;;;;;12.00;9.03;;;1.80;92.50;;;;;;5102103;28;20177;-93
2022/01/08 04:26:23;;;;;;;12.27;8.37;;;1.80;92.40;;;;;;5084744;28;20249;-93
2022/01/08 04:28:55;;;;;;;15.83;9.97;;;1.80;92.40;;;;;;5084161;28;20176;-93
2022/01/08 04:31:23;;;;;;;13.00;7.40;;;1.80;92.20;;;;;;5084811;28;20179;-92
2022/01/08 04:33:49;;;;;;;21.50;13.03;;;1.80;92.00;;;;;;5084530;28;20211;-94
2022/01/08 04:36:15;;;;;;;13.00;6.53;;;1.80;92.00;;;;;;5084502;28;20179;-93
2022/01/08 04:38:40;;;;;;;12.30;7.73;;;1.90;92.10;;;;;;5084559;28;20184;-92
2022/01/08 04:41:06;;;;;;;10.30;6.10;;;1.80;92.00;;;;;;5084195;28;20237;-93
2022/01/08 04:43:33;;;;;;;12.80;8.83;;;1.80;91.90;;;;;;5084523;28;20226;-94
2022/01/08 04:45:59;;;;;;;16.73;10.13;;;1.80;92.00;;;;;;5084327;28;20162;-93
2022/01/08 04:48:25;;;;;;;17.67;9.93;;;1.80;91.80;;;;;;5084387;28;20191;-93
2022/01/08 04:50:50;;;;;;;14.27;10.80;;;1.80;91.80;;;;;;5084496;28;20200;-91
2022/01/08 04:53:16;;;;;;;14.30;8.77;;;1.90;91.90;;;;;;5084319;28;20201;-94
2022/01/08 04:55:42;;;;;;;16.23;10.80;;;1.80;91.90;;;;;;5084202;28;20161;-91
2022/01/08 04:58:08;;;;;;;9.73;6.57;;;1.90;92.00;;;;;;5084187;28;20180;-92
2022/01/08 05:00:33;;;;;;;18.43;10.57;;;1.80;92.00;;;;;;5084209;28;20160;-93
2022/01/08 05:03:05;;;;;;;17.23;8.50;;;1.80;92.10;;;;;;5084037;28;20189;-93
2022/01/08 05:05:31;;;;;;;17.33;9.03;;;1.80;92.20;;;;;;5084258;28;20186;-93
2022/01/08 05:07:57;;;;;;;9.90;7.33;;;1.80;92.30;;;;;;5084052;28;20187;-94
2022/01/08 05:10:22;;;;;;;19.43;11.20;;;1.80;92.30;;;;;;5083993;28;20245;-93
2022/01/08 05:12:48;;;;;;;17.90;10.50;;;1.80;92.50;;;;;;5084027;28;20189;-94
2022/01/08 05:15:15;;;;;;;17.83;11.67;;;1.80;92.40;;;;;;5083807;28;20217;-92
2022/01/08 05:17:43;;;;;;;13.50;9.07;;;1.90;92.30;;;;;;5083966;28;20208;-92
2022/01/08 05:20:11;;;;;;;17.70;11.93;;;1.90;92.30;;;;;;5083787;28;20254;-94
2022/01/08 05:25:14;;;;;;;14.87;8.70;;;1.90;92.10;;;;;;5100073;28;20147;-92
2022/01/08 05:27:40;;;;;;;18.67;11.03;;;1.90;92.10;;;;;;5083572;28;20180;-94
2022/01/08 05:30:06;;;;;;;24.67;12.33;;;1.90;92.10;;;;;;5083632;28;20195;-95
2022/01/08 05:32:32;;;;;;;17.93;11.33;;;1.90;92.30;;;;;;5083666;28;20156;-95
2022/01/08 05:34:59;;;;;;;13.13;9.53;;;1.90;92.40;;;;;;5083508;28;20201;-94
2022/01/08 05:37:25;;;;;;;9.67;7.70;;;1.90;92.40;;;;;;5083387;28;20227;-94
2022/01/08 05:39:51;;;;;;;17.67;10.80;;;1.90;92.30;;;;;;5083551;28;20166;-94
2022/01/08 05:42:17;;;;;;;15.17;10.20;;;1.90;92.30;;;;;;5083516;28;20178;-93
2022/01/08 05:44:43;;;;;;;17.80;12.13;;;1.90;92.30;;;;;;5083124;28;20161;-94
2022/01/08 05:47:09;;;;;;;16.67;11.57;;;1.90;92.40;;;;;;5083252;28;20198;-94
2022/01/08 05:49:35;;;;;;;18.97;12.23;;;1.90;92.30;;;;;;5083321;28;20248;-95
2022/01/08 05:52:01;;;;;;;16.97;11.23;;;2.00;92.30;;;;;;5083057;28;20184;-94
2022/01/08 05:54:26;;;;;;;7.83;6.57;;;1.90;92.30;;;;;;5083203;28;20220;-94
2022/01/08 05:56:52;;;;;;;15.43;11.17;;;1.80;92.30;;;;;;5082858;28;20184;-94
2022/01/08 05:59:18;;;;;;;20.07;11.77;;;1.80;92.30;;;;;;5083089;28;20174;-93
2022/01/08 06:01:44;;;;;;;17.23;12.00;;;1.80;92.40;;;;;;5082953;28;20204;-94
2022/01/08 06:04:10;;;;;;;14.53;12.23;;;1.80;92.50;;;;;;5083002;28;20163;-93
2022/01/08 06:06:39;;;;;;;10.73;8.73;;;1.80;92.60;;;;;;5082887;28;20212;-94
2022/01/08 06:09:05;;;;;;;17.10;10.83;;;1.90;92.60;;;;;;5082942;28;20163;-94
2022/01/08 06:11:30;;;;;;;18.87;11.93;;;1.90;92.60;;;;;;5082858;28;20192;-94
2022/01/08 06:13:56;;;;;;;17.17;11.23;;;1.90;92.50;;;;;;5082586;28;20208;-93
2022/01/08 06:16:22;;;;;;;18.50;11.47;;;1.90;92.50;;;;;;5082746;28;20224;-95
2022/01/08 06:18:47;;;;;;;19.90;12.97;;;1.90;92.60;;;;;;5082781;28;20158;-95
2022/01/08 06:21:13;;;;;;;13.57;9.33;;;1.90;92.60;;;;;;5082380;28;20206;-93
2022/01/08 06:23:38;;;;;;;10.17;7.70;;;1.90;92.60;;;;;;5082612;28;20170;-92
2022/01/08 06:26:06;;;;;;;15.67;10.80;;;2.00;92.50;;;;;;5082269;28;20245;-94
2022/01/08 06:28:32;;;;;;;16.90;8.17;;;1.90;92.50;;;;;;5082605;28;20161;-94
2022/01/08 06:30:58;;;;;;;16.83;11.27;;;2.00;92.50;;;;;;5082462;28;20237;-93
2022/01/08 06:33:24;;;;;;;15.27;9.43;;;2.00;92.60;;;;;;5082392;28;20186;-93
2022/01/08 06:35:51;;;;;;;18.53;11.87;;;2.00;92.60;;;;;;5082491;28;20181;-94
2022/01/08 06:38:18;;;;;;;15.50;10.63;;;2.00;92.70;;;;;;5081800;28;20197;-94
2022/01/08 06:40:44;;;;;;;18.30;11.00;;;2.00;92.70;;;;;;5082392;28;20162;-93
2022/01/08 06:43:09;;;;;;;17.93;10.87;;;2.00;92.80;;;;;;5082379;28;20232;-95
2022/01/08 06:45:35;;;;;;;17.50;11.53;;;2.00;92.80;;;;;;5082272;28;20189;-94
2022/01/08 06:48:02;;;;;;;10.70;6.50;;;2.00;92.70;;;;;;5082187;28;20188;-94
2022/01/08 06:50:28;;;;;;;14.77;10.57;;;2.00;92.70;;;;;;5082175;28;20233;-93
2022/01/08 06:52:54;;;;;;;9.97;5.63;;;1.90;92.60;;;;;;5081848;28;20167;-95
2022/01/08 06:55:20;;;;;;;13.57;8.07;;;2.00;92.60;;;;;;5081872;28;20165;-93
2022/01/08 06:57:46;;;;;;;22.20;11.17;;;2.00;92.50;;;;;;5081902;28;20198;-94
2022/01/08 07:00:12;;;;;;;17.10;9.00;;;1.90;92.40;;;;;;5081536;28;20198;-93
2022/01/08 07:02:38;;;;;;;11.13;8.33;;;1.80;92.50;;;;;;5081419;28;20165;-93
2022/01/08 07:05:04;;;;;;;12.20;7.43;;;1.80;92.60;;;;;;5081584;28;20178;-92
2022/01/08 07:07:29;;;;;;;25.87;10.03;;;1.90;92.70;;;;;;5081626;28;20207;-93
2022/01/08 07:09:55;;;;;;;10.20;7.27;;;1.80;92.80;;;;;;5081846;28;20163;-94
2022/01/08 07:12:21;;;;;;;13.37;7.90;;;1.90;92.80;;;;;;5081766;28;20170;-93
2022/01/08 07:14:46;;;;;;;19.07;11.87;;;1.90;92.70;;;;;;5081752;28;20268;-93
2022/01/08 07:17:12;;;;;;;12.27;8.23;;;1.90;92.70;;;;;;5081444;28;20208;-94
2022/01/08 07:19:37;;;;;;;13.90;10.10;;;1.80;92.70;;;;;;5081528;28;20199;-93
2022/01/08 07:22:03;;;;;;;16.33;8.80;;;1.80;92.90;;;;;;5081683;28;20164;-94
2022/01/08 07:24:29;;;;;;;19.53;12.77;;;1.80;92.80;;;;;;5081610;28;20175;-94
2022/01/08 07:26:55;;;;;;;17.97;12.73;;;1.80;92.80;;;;;;5080943;28;20258;-94
2022/01/08 07:29:20;;;;;;;13.03;8.47;;;1.80;92.70;;;;;;5081152;28;20184;-93
2022/01/08 07:31:46;;;;;;;22.53;12.90;;;1.80;92.70;;;;;;5080467;28;20216;-93
2022/01/08 07:34:12;;;;;;;18.13;10.70;;;1.90;92.80;;;;;;5081043;28;20217;-93
2022/01/08 07:36:37;;;;;;;9.30;6.70;;;1.80;92.90;;;;;;5080620;28;20184;-92
2022/01/08 07:39:03;;;;;;;18.47;13.30;;;1.80;92.80;;;;;;5080943;28;20186;-92
2022/01/08 07:41:29;;;;;;;13.90;9.70;;;1.80;92.80;;;;;;5080776;28;20229;-94
2022/01/08 07:43:54;;;;;;;17.47;12.80;;;1.80;92.80;;;;;;5081358;28;20173;-94
2022/01/08 07:46:20;;;;;;;19.70;11.57;;;1.80;92.80;;;;;;5081252;28;20249;-94
2022/01/08 07:48:46;;;;;;;20.10;12.40;;;1.70;92.80;;;;;;5081658;28;20208;-93
2022/01/08 07:51:12;;;;;;;22.20;13.20;;;1.70;92.90;;;;;;5085415;28;20233;-93
2022/01/08 07:53:37;;;;;;;7.20;5.40;;;1.80;92.90;;;;;;5085255;28;20217;-93
2022/01/08 07:56:03;;;;;;;27.13;12.90;;;1.80;92.90;;;;;;5085050;28;20215;-94
2022/01/08 07:58:29;;;;;;;26.77;12.77;;;1.80;92.90;;;;;;5085033;28;20172;-93
2022/01/08 08:00:55;;;;;;;20.03;12.23;;;1.80;93.00;;;;;;5084815;28;20181;-92
2022/01/08 08:03:21;;;;;;;19.90;11.63;;;1.80;93.00;;;;;;5084626;28;20203;-93
2022/01/08 08:05:47;;;;;;;21.93;13.83;;;1.80;93.00;;;;;;5084573;28;20166;-92
2022/01/08 08:08:17;;;;;;;16.17;11.27;;;1.80;92.90;;;;;;5084804;28;20193;-94
2022/01/08 08:10:44;;;;;;;22.73;12.83;;;1.80;93.00;;;;;;5085055;28;20231;-94
2022/01/08 08:13:10;;;;;;;26.67;14.17;;;1.80;93.00;;;;;;5084892;28;20165;-93
2022/01/08 08:15:35;;;;;;;23.27;14.57;;;1.80;93.00;;;;;;5085140;28;20192;-92
2022/01/08 08:18:01;;;;;;;23.17;12.27;;;1.70;92.90;;;;;;5084679;28;20194;-94
2022/01/08 08:20:27;;;;;;;23.17;11.27;;;1.70;93.00;;;;;;5084848;28;20199;-94
2022/01/08 08:22:52;;;;;;;8.63;7.03;;;1.70;93.00;;;;;;5084922;28;20239;-94
2022/01/08 08:25:18;;;;;;;14.20;9.00;;;1.70;93.00;;;;;;5084864;28;20174;-94
2022/01/08 08:27:44;;;;;;;16.83;10.00;;;1.70;93.00;;;;;;5084753;28;20208;-94
2022/01/08 08:30:10;;;;;;;19.80;11.20;;;1.70;92.90;;;;;;5084844;28;20191;-92
2022/01/08 08:32:37;;;;;;;19.10;11.87;;;1.70;92.90;;;;;;5084873;28;20178;-92
2022/01/08 08:35:03;;;;;;;11.37;8.57;;;1.70;93.00;;;;;;5084478;28;20201;-94
2022/01/08 08:37:28;;;;;;;16.27;11.03;;;1.70;92.80;;;;;;5084438;28;20196;-93
2022/01/08 08:39:54;;;;;;;17.67;10.30;;;1.70;92.90;;;;;;5084558;28;20177;-93
2022/01/08 08:42:20;;;;;;;19.13;11.80;;;1.70;93.00;;;;;;5084202;28;20170;-93
2022/01/08 08:44:46;;;;;;;15.87;9.03;;;1.70;93.00;;;;;;5084289;28;20178;-93
2022/01/08 08:47:11;;;;;;;10.77;8.87;;;1.70;93.00;;;;;;5084434;28;20192;-94
2022/01/08 08:49:37;;;;;;;10.00;7.47;;;1.80;93.00;;;;;;5084458;28;20164;-93
2022/01/08 08:52:03;;;;;;;11.80;7.63;;;1.70;92.90;;;;;;5084318;28;20223;-93
2022/01/08 08:54:29;;;;;;;19.47;12.67;;;1.80;92.90;;;;;;5084154;28;20240;-94
2022/01/08 08:56:55;;;;;;;17.97;12.40;;;1.80;92.90;;;;;;5084300;28;20181;-93
2022/01/08 08:59:23;;;;;;;22.73;14.60;;;1.80;92.90;;;;;;5084115;28;20156;-94
2022/01/08 09:01:48;;;;;;;15.27;8.77;;;1.80;92.90;;;;;;5084289;28;20186;-94
2022/01/08 09:04:14;;;;;;;18.70;12.90;;;1.90;92.70;;;;;;5084038;28;20185;-94
2022/01/08 09:06:40;;;;;;;23.03;13.80;;;1.90;92.60;;;;;;5083735;28;20190;-94
2022/01/08 09:09:05;;;;;;;18.67;11.33;;;1.90;92.60;;;;;;5083928;28;20186;-93
2022/01/08 09:11:31;;;;;;;25.63;11.40;;;1.90;92.60;;;;;;5083923;28;20234;-94
2022/01/08 09:13:57;;;;;;;23.97;12.00;;;1.90;92.60;;;;;;5083925;28;20271;-93
2022/01/08 09:16:23;;;;;;;22.57;11.87;;;2.00;92.70;;;;;;5083918;28;20179;-94
2022/01/08 09:18:49;;;;;;;25.13;13.03;;;2.00;92.80;;;;;;5083868;28;20189;-94
2022/01/08 09:21:15;;;;;;;20.20;12.07;;;1.90;92.60;;;;;;5083689;28;20158;-94
2022/01/08 09:23:40;;;;;;;22.10;13.43;;;1.90;92.60;;;;;;5083752;28;20153;-92
2022/01/08 09:26:06;;;;;;;16.90;10.43;;;2.00;92.70;;;;;;5083722;28;20172;-93
2022/01/08 09:28:32;;;;;;;21.40;13.53;;;1.90;92.80;;;;;;5083763;28;20177;-95
2022/01/08 09:30:59;;;;;;;13.27;8.20;;;2.00;92.70;;;;;;5083752;28;20156;-94
2022/01/08 09:33:25;;;;;;;19.93;13.10;;;2.00;92.60;;;;;;5083660;28;20264;-94
2022/01/08 09:35:51;;;;;;;19.43;9.83;;;2.00;92.50;;;;;;5083541;28;20173;-94
2022/01/08 09:38:17;;;;;;;16.80;10.60;;;2.00;92.60;;;;;;5082491;28;20202;-93
2022/01/08 09:40:43;;;;;;;17.00;11.33;;;2.10;92.50;;;;;;5081562;28;20178;-94
2022/01/08 09:43:09;;;;;;;13.93;10.13;;;2.10;92.50;;;;;;5081755;28;20178;-93
2022/01/08 09:45:35;;;;;;;15.03;9.97;;;2.20;92.50;;;;;;5081073;28;20235;-93
2022/01/08 09:48:01;;;;;;;16.23;11.57;;;2.30;92.40;;;;;;5082214;28;20207;-93
2022/01/08 09:50:27;;;;;;;14.10;10.23;;;2.30;92.30;;;;;;5074530;28;20202;-92
2022/01/08 09:52:58;;;;;;;22.37;12.40;;;2.30;92.20;;;;;;5081506;28;20167;-94
2022/01/08 09:55:26;;;;;;;11.73;9.17;;;2.30;92.10;;;;;;5081654;28;20208;-93
2022/01/08 09:57:55;;;;;;;17.20;12.40;;;2.30;92.10;;;;;;5082424;28;20181;-93
2022/01/08 10:00:21;;;;;;;21.87;12.57;;;2.30;92.00;;;;;;5079171;28;20187;-93
2022/01/08 10:02:49;;;;;;;17.57;10.57;;;2.30;91.80;;;;;;5075449;28;20180;-93
2022/01/08 10:05:19;;;;;;;24.33;12.13;;;2.30;91.90;;;;;;5073884;28;20182;-93
2022/01/08 10:07:59;;;;;;;18.53;10.70;;;2.40;91.80;;;;;;5078876;28;20318;-93
2022/01/08 10:10:27;;;;;;;16.90;9.77;;;2.40;91.70;;;;;;5080986;28;20306;-94
2022/01/08 10:13:00;;;;;;;12.13;5.70;;;2.50;91.60;;;;;;5077576;28;20212;-93
2022/01/08 10:18:28;;;;;;;15.97;11.60;;;2.60;91.40;;;;;;5098550;28;20182;-94
2022/01/08 10:20:55;;;;;;;16.83;8.63;;;2.70;91.20;;;;;;5080612;28;20177;-93
2022/01/08 10:23:27;;;;;;;15.17;10.07;;;2.70;90.80;;;;;;5099138;28;20193;-93
2022/01/08 10:25:58;;;;;;;15.13;10.63;;;2.70;90.90;;;;;;5082085;28;20159;-92
2022/01/08 10:28:33;;;;;;;18.83;10.77;;;2.70;90.90;;;;;;5081218;28;20162;-93
2022/01/08 10:31:14;;;;;;;13.40;9.13;;;2.60;90.80;;;;;;5082185;28;20190;-96
2022/01/08 10:33:48;;;;;;;18.07;10.77;;;2.70;91.00;;;;;;5081232;28;20264;-93
2022/01/08 10:36:14;;;;;;;16.80;10.10;;;2.70;90.90;;;;;;5079801;28;20167;-94
2022/01/08 11:25:18;;;;;;;19.97;8.73;;;4.10;87.80;;;;;;5074351;28;20192;-92
2022/01/08 11:27:59;;;;;;;14.13;7.60;;;4.20;87.50;;;;;;5076707;28;20235;-95
2022/01/08 11:30:38;;;;;;;16.73;8.50;;;4.30;87.20;;;;;;5077353;28;20204;-95
2022/01/08 11:33:14;;;;;;;12.60;6.17;;;4.30;87.40;;;;;;5069848;28;20214;-92
2022/01/08 11:35:41;;;;;;;11.27;6.57;;;4.30;87.00;;;;;;5073319;28;20175;-92
2022/01/08 12:35:37;;;;;;;18.23;9.00;;;3.70;86.90;;;;;;5099272;28;20183;-95
2022/01/08 12:38:05;;;;;;;14.13;8.10;;;3.80;87.50;;;;;;5100196;28;20195;-94
2022/01/08 12:40:45;;;;;;;11.43;6.57;;;3.80;86.80;;;;;;5100202;28;20166;-96
2022/01/08 12:46:36;;;;;;;11.03;7.93;;;3.80;87.20;;;;;;5209345;22;20227;-93
2022/01/08 12:49:14;;;;;;;15.77;7.60;;;3.80;86.60;;;;;;5081128;28;20156;-95
2022/01/08 12:51:49;;;;;;;10.40;6.80;;;3.90;87.30;;;;;;5081158;28;20159;-95
2022/01/08 12:54:17;;;;;;;14.90;7.07;;;3.90;86.40;;;;;;5064354;28;20683;-92
2022/01/08 12:56:47;;;;;;;16.27;9.10;;;3.90;86.40;;;;;;5063211;28;20195;-90
2022/01/08 12:59:14;;;;;;;11.60;6.90;;;4.00;86.80;;;;;;5058076;28;20232;-92
2022/01/08 13:01:44;;;;;;;20.77;10.63;;;4.00;86.50;;;;;;5055361;28;20547;-92
2022/01/08 13:04:16;;;;;;;14.53;8.30;;;4.10;86.50;;;;;;5055420;28;20302;-92
2022/01/08 13:06:42;;;;;;;15.27;8.93;;;4.10;86.60;;;;;;5055349;28;20200;-91
2022/01/08 13:09:08;;;;;;;18.33;7.30;;;4.10;86.60;;;;;;5062092;28;20176;-92
2022/01/08 13:11:39;;;;;;;16.43;9.40;;;4.10;86.30;;;;;;5055477;28;20191;-93
2022/01/08 13:14:10;;;;;;;12.70;7.87;;;4.00;86.40;;;;;;5055058;28;20195;-93
2022/01/08 13:16:41;;;;;;;13.37;7.07;;;4.10;86.10;;;;;;5055196;28;20218;-93
2022/01/08 13:19:15;;;;;;;15.80;9.67;;;4.20;85.40;;;;;;5054868;28;20540;-92
2022/01/08 13:21:44;;;;;;;13.37;9.83;;;4.20;86.00;;;;;;5056399;28;20164;-93
2022/01/08 13:24:22;;;;;;;12.50;7.57;;;4.20;86.10;;;;;;5056990;28;20230;-93
2022/01/08 13:26:52;;;;;;;14.67;9.30;;;4.20;86.30;;;;;;5058845;28;20231;-92
2022/01/08 13:29:23;;;;;;;15.23;8.93;;;4.10;86.40;;;;;;5059541;28;20239;-94
2022/01/08 13:31:54;;;;;;;12.00;7.50;;;4.10;86.00;;;;;;5064003;28;20164;-93
2022/01/08 13:34:21;;;;;;;18.30;7.93;;;4.10;85.80;;;;;;5061631;28;20249;-93
2022/01/08 13:36:58;;;;;;;20.67;8.37;;;4.10;84.90;;;;;;5058565;28;20555;-92
2022/01/08 13:39:37;;;;;;;14.63;8.77;;;4.00;85.70;;;;;;5058969;28;20175;-92
2022/01/08 13:42:11;;;;;;;17.53;8.83;;;4.00;85.90;;;;;;5057439;28;20175;-92
2022/01/08 13:44:58;;;;;;;11.53;6.43;;;4.00;86.20;;;;;;5058105;28;20192;-91
2022/01/08 13:47:30;;;;;;;13.07;6.73;;;4.00;86.20;;;;;;5055331;28;20196;-93
2022/01/08 13:50:00;;;;;;;8.23;4.10;;;3.90;86.00;;;;;;5060146;28;20189;-91
2022/01/08 13:52:36;;;;;;;18.40;9.47;;;3.90;85.80;;;;;;5062493;28;20189;-92
2022/01/08 13:55:12;;;;;;;9.27;6.67;;;3.90;86.20;;;;;;5059908;28;20202;-93
2022/01/08 13:57:38;;;;;;;14.17;7.77;;;3.80;86.20;;;;;;5061449;28;20227;-93
2022/01/08 14:00:21;;;;;;;13.67;8.10;;;3.70;86.60;;;;;;5059143;28;20179;-92
2022/01/08 14:02:49;;;;;;;16.87;8.83;;;3.60;86.90;;;;;;5056697;28;20178;-90
2022/01/08 14:05:15;;;;;;;11.27;6.87;;;3.60;86.70;;;;;;5056019;28;20273;-92
2022/01/08 14:07:41;;;;;;;15.47;8.10;;;3.50;87.00;;;;;;5056230;28;20199;-92
2022/01/08 14:10:08;;;;;;;10.37;7.67;;;3.60;86.80;;;;;;5056394;28;20269;-92
2022/01/08 14:12:34;;;;;;;14.50;9.37;;;3.60;87.10;;;;;;5065025;28;20176;-92
2022/01/08 14:15:05;;;;;;;16.07;7.83;;;3.60;86.80;;;;;;5058583;28;20206;-92
2022/01/08 14:17:33;;;;;;;14.17;8.10;;;3.70;86.30;;;;;;5059064;28;20196;-92
2022/01/08 14:20:00;;;;;;;14.63;8.67;;;3.70;86.30;;;;;;5055603;28;20636;-91
2022/01/08 14:22:27;;;;;;;14.90;9.37;;;3.60;86.80;;;;;;5055612;28;20232;-91
2022/01/08 14:24:54;;;;;;;10.60;6.07;;;3.60;86.80;;;;;;5055552;28;20643;-91
2022/01/08 14:27:22;;;;;;;10.83;6.20;;;3.50;87.30;;;;;;5055740;28;20233;-92
2022/01/08 14:30:05;;;;;;;16.13;9.57;;;3.60;86.80;;;;;;5055308;28;20177;-92
2022/01/08 14:32:31;;;;;;;10.63;7.63;;;3.60;86.80;;;;;;5064265;28;20170;-91
2022/01/08 14:35:01;;;;;;;11.27;8.40;;;3.60;86.70;;;;;;5059397;28;20270;-91
2022/01/08 14:37:33;;;;;;;11.57;8.60;;;3.60;86.90;;;;;;5055316;28;20245;-92
2022/01/08 14:40:15;;;;;;;10.27;7.03;;;3.50;86.90;;;;;;5054836;28;20183;-91
2022/01/08 14:42:41;;;;;;;10.70;7.70;;;3.50;87.00;;;;;;5056599;28;20181;-92
2022/01/08 14:45:15;;;;;;;19.90;10.63;;;3.40;86.80;;;;;;5055372;28;20199;-91
2022/01/08 14:47:42;;;;;;;21.83;11.90;;;3.40;86.90;;;;;;5055025;28;20582;-91
2022/01/08 14:50:08;;;;;;;15.27;9.00;;;3.40;87.20;;;;;;5055807;28;20179;-92
2022/01/08 14:52:34;;;;;;;20.93;11.10;;;3.30;87.20;;;;;;5055654;28;20690;-91
2022/01/08 14:55:01;;;;;;;13.50;9.70;;;3.30;87.50;;;;;;5054689;28;20204;-92